Nearby METAR Reports

 

KPMD - Palmdale, California, USA
Distance from station: NNE 12mi, 19km
Updated: Wed, 26-Jan-2022 5:53am PST
Clear
Clear
 Wind from calm
Wind: Calm
Temperature: 34°F , 1°C
Dew Point: 12°F , -11°C
Humidity: 41%
Barometer: 30.21 inHg , 1023 hPa
Clouds: Clear
Visibility: 10 miles , 16 km
2022/01/26 13:53 KPMD 261353Z AUTO 00000KT 10SM CLR 01/M11 A3021 RMK AO2 SLP233 T00061106 $
KWJF - Lancaster/Fox, California, USA
Distance from station: N 17mi, 27km
Updated: Wed, 26-Jan-2022 5:56am PST
Clear
Clear
 Wind from SW
Wind: SW 3 mph , 6 km/h
Temperature: 27°F , -3°C
Dew Point: 16°F , -9°C
Humidity: 64%
Barometer: 30.22 inHg , 1023.4 hPa
Clouds: Clear
Visibility: 10 miles , 16 km
2022/01/26 13:56 KWJF 261356Z AUTO 23003KT 10SM CLR M03/M09 A3022 RMK AO2 SLP246 T10281094
 
KMWS - Mount Wilson, California, USA
Distance from station: SSE 18mi, 30km
Updated: Wed, 13-May-2015 6:45am PDT
NOT Current

 Wind from S
Wind: S 3 mph , 6 km/h, Gust: 5 mph , 7 km/h
Temperature: 43°F , 6°C
Dew Point: -0°F , -18°C
Humidity: 16%
2015/05/13 13:45 KMWS 131345Z 18003G04KT 06/M18 RMK SNOW DEPTH 1.00
KWHP - La / Whiteman, California, USA
Distance from station: SW 21mi, 34km
Updated: Tue, 25-Jan-2022 7:50pm PST
NOT Current
Clear
Clear
 Wind from calm
Wind: Calm
Temperature: 54°F , 12°C
Dew Point: 43°F , 6°C
Humidity: 67%
Barometer: 30.04 inHg , 1017.3 hPa
Clouds: Clear
Visibility: 10 miles , 16 km
2022/01/26 03:50 KWHP 260350Z 00000KT 10SM SKC 12/06 A3004
 
KBUR - Burbank, California, USA
Distance from station: SSW 22mi, 35km
Updated: Wed, 26-Jan-2022 5:53am PST
Clear
Clear
 Wind from calm
Wind: Calm
Temperature: 45°F , 7°C
Dew Point: 34°F , 1°C
Humidity: 66%
Barometer: 30.08 inHg , 1018.6 hPa
Clouds: Clear
Visibility: 10 miles , 16 km
2022/01/26 13:53 KBUR 261353Z 00000KT 10SM CLR 07/01 A3008 RMK AO2 SLP179 T00720006 $
KVNY - Van Nuys, California, USA
Distance from station: SW 25mi, 40km
Updated: Wed, 26-Jan-2022 5:51am PST
Clear
Clear
 Wind from SSE
Wind: SSE 6 mph , 9 km/h
Temperature: 43°F , 6°C
Wind Chill: 39°F , 4°C
Dew Point: 36°F , 2°C
Humidity: 76%
Barometer: 30.08 inHg , 1018.6 hPa
Clouds: Clear
Visibility: 10 miles , 16 km
2022/01/26 13:51 KVNY 261351Z 16005KT 10SM CLR 06/02 A3008 RMK AO2 SLP183 T00560017
 
KEDW - Edwards Afb, California, USA
Distance from station: NNE 33mi, 53km
Updated: Wed, 26-Jan-2022 5:58am PST
Clear
Clear
 Wind from NNW
Wind: NNW 9 mph , 15 km/h
Temperature: 28°F , -2°C
Wind Chill: 19°F , -7°C
Dew Point: 12°F , -11°C
Humidity: 51%
Barometer: 30.19 inHg , 1022.4 hPa
Clouds: Clear
Visibility: 10 miles , 16 km
2022/01/26 13:58 KEDW 261358Z AUTO 34008KT 10SM CLR M02/M11 A3019 RMK AO2 SLP231 T10231111
KSMO - Santa Monica, California, USA
Distance from station: SSW 35mi, 57km
Updated: Wed, 26-Jan-2022 5:51am PST
Clear
Clear
 Wind from NNE
Wind: NNE 5 mph , 7 km/h
Temperature: 45°F , 7°C
Wind Chill: 42°F , 6°C
Dew Point: 39°F , 4°C
Humidity: 81%
Barometer: 30.10 inHg , 1019.3 hPa
Clouds: Clear
2022/01/26 13:51 KSMO 261351Z AUTO 03004KT CLR 07/04 A3010 RMK AO2 SLP190 T00720044
 
KLAX - Los Angeles, California, USA
Distance from station: SSW 39mi, 63km
Updated: Wed, 26-Jan-2022 5:53am PST
Few Clouds
Few Clouds
 Wind from E
Wind: E 5 mph , 7 km/h
Temperature: 48°F , 9°C
Wind Chill: 46°F , 8°C
Dew Point: 43°F , 6°C
Humidity: 82%
Barometer: 30.10 inHg , 1019.3 hPa
Clouds: Few Clouds
Visibility: 10 miles , 16 km
Cloud details: Few Clouds 400 ft
2022/01/26 13:53 KLAX 261353Z 08004KT 10SM FEW004 09/06 A3010 RMK AO2 SLP190 T00890056
KMHV - Mojave, California, USA
Distance from station: N 41mi, 66km
Updated: Wed, 26-Jan-2022 6:20am PST
Haze, Clear
Haze, Clear
 Wind from NNW
Wind: NNW 8 mph , 13 km/h
Temperature: 28°F , -2°C
Wind Chill: 20°F , -7°C
Dew Point: 10°F , -12°C
Humidity: 47%
Barometer: 30.22 inHg , 1023.4 hPa
Summary: Haze
Clouds: Clear
Visibility: 6 miles , 10 km
2022/01/26 14:20 KMHV 261420Z AUTO 33007KT 6SM HZ CLR M02/M12 A3022 RMK A01
 
KFUL - Fullerton, California, USA
Distance from station: SSE 44mi, 70km
Updated: Wed, 26-Jan-2022 5:53am PST
Fog, Overcast
Fog, Overcast
 Wind from calm
Wind: Calm
Temperature: 48°F , 9°C
Dew Point: 48°F , 9°C
Humidity: 100%
Barometer: 30.09 inHg , 1019 hPa
Summary: Fog
Clouds: Overcast
Visibility: 1/4 mile , 0.4 km
Cloud details: Overcast 200 ft
2022/01/26 13:53 KFUL 261353Z AUTO 00000KT 1/4SM FG VV002 09/09 A3009 RMK AO2 SLP188 T00890089
KONT - Ontario, California, USA
Distance from station: SE 45mi, 72km
Updated: Wed, 26-Jan-2022 5:53am PST
Few Clouds
Few Clouds
 Wind from calm
Wind: Calm
Temperature: 43°F , 6°C
Dew Point: 25°F , -4°C
Humidity: 49%
Barometer: 30.08 inHg , 1018.6 hPa
Clouds: Few Clouds
Visibility: 10 miles , 16 km
Cloud details: Few Clouds 25000 ft
2022/01/26 13:53 KONT 261353Z 00000KT 10SM FEW250 06/M04 A3008 RMK AO2 SLP188 T00611039
 
KLGB - Long Beach, California, USA
Distance from station: S 46mi, 74km
Updated: Wed, 26-Jan-2022 5:53am PST
Fog, Overcast
Fog, Overcast
 Wind from calm
Wind: Calm
Temperature: 48°F , 9°C
Dew Point: 48°F , 9°C
Humidity: 100%
Barometer: 30.10 inHg , 1019.3 hPa
Summary: Fog
Clouds: Overcast
Visibility: 1/4 mile , 0.4 km
Cloud details: Overcast 100 ft
2022/01/26 13:53 KLGB 261353Z AUTO 00000KT 1/4SM R30/1000V1200FT FG VV001 09/09 A3010 RMK AO2 SLP191 T00940089
KVCV - Victorville, California, USA
Distance from station: E 46mi, 74km
Updated: Wed, 26-Jan-2022 6:30am PST
Clear
Clear
 Wind from calm
Wind: Calm
Temperature: 32°F , 0°C
Dew Point: 9°F , -13°C
Humidity: 37%
Barometer: 30.25 inHg , 1024.4 hPa
Clouds: Clear
Visibility: 10 miles , 16 km
2022/01/26 14:30 KVCV 261430Z AUTO 00000KT 10SM CLR M00/M13 A3025 RMK AO2
 
KTSP - Tehachapi, California, USA
Distance from station: NNW 48mi, 77km
Updated: Wed, 26-Jan-2022 6:35am PST
Clear
Clear
 Wind from ESE
Wind: ESE 10 mph , 17 km/h, Gust: 17 mph , 28 km/h
Temperature: 34°F , 1°C
Wind Chill: 26°F , -3°C
Dew Point: 9°F , -13°C
Humidity: 35%
Barometer: 30.20 inHg , 1022.7 hPa
Clouds: Clear
Visibility: 10 miles , 16 km
2022/01/26 14:35 KTSP 261435Z AUTO 12009G15KT 10SM CLR 01/M13 A3020 RMK AO2